Time;durP1;ratioP1;P1;durP2;ratioP2;P2;SDS_P1;SDS_P2;PMS_P1;PMS_P2;Temp;Humidity;BMP_temperature;BMP_pressure;BME280_temperature;BME280_humidity;BME280_pressure;Samples;Min_cycle;Max_cycle;Signal;HPM_P1;HPM_P2
2022/04/25 00:00:38;;;;;;;0.93;0.93;;;9.70;99.90;;;;;;5083477;28;20204;-47
2022/04/25 00:03:22;;;;;;;1.13;0.80;;;9.60;99.90;;;;;;5083744;28;20193;-51
2022/04/25 00:06:06;;;;;;;1.83;1.70;;;9.60;99.90;;;;;;5083206;28;20220;-54
2022/04/25 00:08:51;;;;;;;1.60;1.00;;;9.60;99.90;;;;;;5084016;28;20204;-54
2022/04/25 00:11:35;;;;;;;1.23;1.10;;;9.60;99.90;;;;;;5083971;28;20201;-48
2022/04/25 00:14:19;;;;;;;1.27;1.17;;;9.60;99.90;;;;;;5082373;28;20192;-58
2022/04/25 00:17:04;;;;;;;1.83;1.10;;;9.60;99.90;;;;;;5082696;28;20270;-46
2022/04/25 00:19:48;;;;;;;1.70;1.60;;;9.60;99.90;;;;;;5083705;28;20223;-53
2022/04/25 00:22:32;;;;;;;3.43;1.20;;;9.60;99.90;;;;;;5082873;28;20246;-55
2022/04/25 00:25:17;;;;;;;2.33;1.77;;;9.70;99.90;;;;;;5083359;28;20227;-49
2022/04/25 00:28:03;;;;;;;1.93;1.57;;;9.60;99.90;;;;;;5082510;28;20189;-48
2022/04/25 00:30:47;;;;;;;1.17;1.00;;;9.60;99.90;;;;;;5083166;28;20235;-45
2022/04/25 00:33:31;;;;;;;1.03;1.00;;;9.70;99.90;;;;;;5082834;28;20243;-47
2022/04/25 00:36:16;;;;;;;0.93;0.93;;;9.60;99.90;;;;;;5082740;28;20274;-53
2022/04/25 00:39:00;;;;;;;1.77;0.90;;;9.50;99.90;;;;;;5081779;28;20257;-54
2022/04/25 00:41:44;;;;;;;1.83;1.73;;;9.50;99.90;;;;;;5083591;28;20246;-47
2022/04/25 00:44:29;;;;;;;1.83;1.73;;;9.60;99.90;;;;;;5082439;28;20250;-54
2022/04/25 00:47:14;;;;;;;1.47;1.27;;;9.60;99.90;;;;;;5082642;28;20324;-51
2022/04/25 00:49:58;;;;;;;1.00;1.00;;;9.60;99.90;;;;;;5083447;28;20315;-52
2022/04/25 00:52:43;;;;;;;1.37;1.20;;;9.60;99.90;;;;;;5082491;28;20283;-53
2022/04/25 00:55:29;;;;;;;2.07;1.60;;;9.60;99.90;;;;;;5082866;28;20200;-48
2022/04/25 00:58:13;;;;;;;1.40;1.30;;;9.60;99.90;;;;;;5082101;28;20197;-44
2022/04/25 01:00:58;;;;;;;1.37;1.30;;;9.60;99.90;;;;;;5082264;28;20247;-51
2022/04/25 01:03:42;;;;;;;1.70;1.60;;;9.60;99.90;;;;;;5082903;28;20209;-50
2022/04/25 01:06:26;;;;;;;1.77;1.67;;;9.60;99.90;;;;;;5081969;28;20232;-52
2022/04/25 01:09:10;;;;;;;1.73;1.03;;;9.70;99.90;;;;;;5082026;28;20208;-51
2022/04/25 01:11:55;;;;;;;1.27;1.17;;;9.60;99.90;;;;;;5082001;28;20192;-50
2022/04/25 01:14:39;;;;;;;1.37;1.27;;;9.70;99.90;;;;;;5081616;28;20200;-50
2022/04/25 01:17:23;;;;;;;1.83;1.73;;;9.70;99.90;;;;;;5081927;28;20189;-50
2022/04/25 01:20:08;;;;;;;1.03;0.83;;;9.70;99.90;;;;;;5082442;28;20212;-51
2022/04/25 01:29:14;;;;;;;1.13;1.10;;;9.70;99.90;;;;;;5083480;28;20201;-61
2022/04/25 01:31:58;;;;;;;2.73;1.80;;;9.60;99.90;;;;;;5081116;28;20192;-50
2022/04/25 01:34:43;;;;;;;2.00;1.57;;;9.60;99.90;;;;;;5081751;28;20185;-50
2022/04/25 01:37:27;;;;;;;3.30;2.23;;;9.60;99.90;;;;;;5082069;28;20665;-48
2022/04/25 01:40:12;;;;;;;25.50;10.93;;;9.50;99.90;;;;;;5081364;28;20201;-51
2022/04/25 01:42:57;;;;;;;2.40;2.20;;;9.50;99.90;;;;;;5082009;28;20189;-55
2022/04/25 01:45:41;;;;;;;3.03;1.73;;;9.50;99.90;;;;;;5082163;28;20216;-45
2022/04/25 01:48:25;;;;;;;2.23;1.83;;;9.50;99.90;;;;;;5083041;28;20208;-49
2022/04/25 01:51:11;;;;;;;2.30;1.47;;;9.50;99.90;;;;;;5082070;28;20269;-52
2022/04/25 01:53:55;;;;;;;3.27;1.60;;;9.50;99.90;;;;;;5080884;28;20303;-55
2022/04/25 01:56:39;;;;;;;1.83;1.70;;;9.50;99.90;;;;;;5081968;28;20307;-50
2022/04/25 01:59:24;;;;;;;3.43;2.10;;;9.50;99.90;;;;;;5082089;28;20235;-50
2022/04/25 02:02:09;;;;;;;1.53;1.17;;;9.40;99.90;;;;;;5081286;28;20205;-57
2022/04/25 02:04:53;;;;;;;3.30;1.90;;;9.40;99.90;;;;;;5082711;28;20279;-61
2022/04/25 02:07:37;;;;;;;3.43;1.70;;;9.40;99.90;;;;;;5081832;28;20228;-53
2022/04/25 02:10:22;;;;;;;2.37;1.50;;;9.40;99.90;;;;;;5082095;28;20247;-48
2022/04/25 02:13:06;;;;;;;2.87;1.67;;;9.40;99.90;;;;;;5082185;28;20382;-56
2022/04/25 02:15:51;;;;;;;3.47;1.70;;;9.40;99.90;;;;;;5081350;28;20602;-59
2022/04/25 02:18:35;;;;;;;2.53;1.93;;;9.40;99.90;;;;;;5083936;28;20211;-61
2022/04/25 02:21:20;;;;;;;5.40;2.97;;;9.40;99.90;;;;;;5084013;28;20243;-49
2022/04/25 02:24:05;;;;;;;3.17;1.87;;;9.30;99.90;;;;;;5082015;28;20242;-56
2022/04/25 02:26:50;;;;;;;2.40;2.10;;;9.30;99.90;;;;;;5082206;28;20268;-58
2022/04/25 02:29:35;;;;;;;3.30;1.80;;;9.30;99.90;;;;;;5083350;28;20193;-50
2022/04/25 02:32:19;;;;;;;2.87;1.43;;;9.30;99.90;;;;;;5082372;28;20304;-50
2022/04/25 02:35:04;;;;;;;2.13;1.57;;;9.30;99.90;;;;;;5081833;28;20193;-52
2022/04/25 02:37:49;;;;;;;3.53;2.50;;;9.30;99.90;;;;;;5082027;28;20201;-60
2022/04/25 02:40:33;;;;;;;2.60;1.60;;;9.30;99.90;;;;;;5083353;28;20200;-48
2022/04/25 02:43:18;;;;;;;3.83;2.30;;;9.30;99.90;;;;;;5081779;28;20284;-55
2022/04/25 02:46:04;;;;;;;2.63;2.33;;;9.30;99.90;;;;;;5081020;28;20271;-60
2022/04/25 02:48:48;;;;;;;4.00;2.00;;;9.30;99.90;;;;;;5082596;28;20193;-52
2022/04/25 02:51:33;;;;;;;2.43;2.23;;;9.30;99.90;;;;;;5082717;28;20262;-62
2022/04/25 02:54:18;;;;;;;3.27;2.43;;;9.30;99.90;;;;;;5081687;28;20282;-59
2022/04/25 02:57:02;;;;;;;4.77;2.40;;;9.30;99.90;;;;;;5081133;28;20204;-64
2022/04/25 02:59:46;;;;;;;3.17;2.43;;;9.30;99.90;;;;;;5081618;28;20196;-56
2022/04/25 03:02:31;;;;;;;3.13;2.30;;;9.30;99.90;;;;;;5083376;28;20185;-55
2022/04/25 03:05:15;;;;;;;2.57;1.63;;;9.30;99.90;;;;;;5085407;28;20244;-57
2022/04/25 03:07:59;;;;;;;5.47;2.37;;;9.30;99.90;;;;;;5085267;28;20209;-55
2022/04/25 03:10:45;;;;;;;2.53;2.30;;;9.40;99.90;;;;;;5085462;28;20192;-60
2022/04/25 03:13:30;;;;;;;2.47;2.13;;;9.30;99.90;;;;;;5085084;28;20330;-60
2022/04/25 03:16:15;;;;;;;3.13;2.43;;;9.30;99.90;;;;;;5084397;28;20204;-58
2022/04/25 03:18:59;;;;;;;4.30;3.33;;;9.30;99.90;;;;;;5085647;28;20717;-54
2022/04/25 03:21:44;;;;;;;2.63;1.93;;;9.30;99.90;;;;;;5085800;28;20264;-58
2022/04/25 03:24:29;;;;;;;3.47;2.10;;;9.30;99.90;;;;;;5084076;28;20247;-50
2022/04/25 03:27:14;;;;;;;3.43;2.63;;;9.20;99.90;;;;;;5084781;28;20189;-53
2022/04/25 03:29:58;;;;;;;3.63;2.47;;;9.20;99.90;;;;;;5085288;28;20204;-52
2022/04/25 03:32:45;;;;;;;3.67;2.83;;;9.20;99.90;;;;;;5083688;28;20212;-52
2022/04/25 03:35:30;;;;;;;4.00;2.73;;;9.20;99.90;;;;;;5085554;28;20220;-51
2022/04/25 03:38:21;;;;;;;3.90;2.27;;;9.20;99.90;;;;;;5084931;28;20236;-54
2022/04/25 03:41:05;;;;;;;4.17;2.50;;;9.20;99.90;;;;;;5083868;28;20239;-59
2022/04/25 03:43:50;;;;;;;3.37;2.97;;;9.20;99.90;;;;;;5084658;28;20255;-58
2022/04/25 03:46:34;;;;;;;5.03;3.37;;;9.30;99.90;;;;;;5083259;28;20264;-50
2022/04/25 03:49:19;;;;;;;3.73;2.77;;;9.30;99.90;;;;;;5084415;28;20289;-58
2022/04/25 03:52:04;;;;;;;6.80;2.97;;;9.20;99.90;;;;;;5084080;28;20247;-58
2022/04/25 03:57:51;;;;;;;5.00;2.90;;;9.20;99.90;;;;;;5085017;28;20246;-53
2022/04/25 04:00:37;;;;;;;4.73;2.57;;;9.20;99.90;;;;;;5084294;28;20213;-58
2022/04/25 04:03:22;;;;;;;6.50;3.50;;;9.30;99.90;;;;;;5082897;28;20251;-51
2022/04/25 04:06:09;;;;;;;5.80;3.07;;;9.30;99.90;;;;;;5083221;28;20223;-46
2022/04/25 04:08:53;;;;;;;5.13;3.07;;;9.20;99.90;;;;;;5084266;28;20197;-56
2022/04/25 04:11:46;;;;;;;4.93;3.10;;;9.20;99.90;;;;;;5082200;28;20196;-48
2022/04/25 04:14:30;;;;;;;8.33;4.30;;;9.20;99.90;;;;;;5082831;28;20247;-49
2022/04/25 04:17:17;;;;;;;6.83;3.63;;;9.20;99.90;;;;;;5081173;28;20255;-50
2022/04/25 04:20:03;;;;;;;6.47;3.00;;;9.20;99.90;;;;;;5082771;28;20181;-61
2022/04/25 04:22:47;;;;;;;3.93;2.77;;;9.30;99.90;;;;;;5079984;28;20227;-51
2022/04/25 04:25:32;;;;;;;5.73;2.70;;;9.30;99.90;;;;;;5077531;28;20204;-48
2022/04/25 04:28:17;;;;;;;4.80;2.77;;;9.40;99.90;;;;;;5073408;28;20193;-51
2022/04/25 04:31:01;;;;;;;5.90;3.57;;;9.40;99.90;;;;;;5073198;28;20218;-54
2022/04/25 04:33:45;;;;;;;4.83;3.23;;;9.30;99.90;;;;;;5073107;28;20219;-45
2022/04/25 04:36:29;;;;;;;6.63;3.53;;;9.30;99.90;;;;;;5073668;28;20274;-49
2022/04/25 04:39:14;;;;;;;6.10;3.63;;;9.30;99.90;;;;;;5074408;28;20239;-49
2022/04/25 04:41:59;;;;;;;6.03;2.83;;;9.40;99.90;;;;;;5072819;28;20243;-54
2022/04/25 04:44:45;;;;;;;3.73;2.83;;;9.30;99.90;;;;;;5072853;28;20197;-49
2022/04/25 04:47:34;;;;;;;5.07;3.00;;;9.30;99.90;;;;;;5073655;28;20227;-49
2022/04/25 04:50:19;;;;;;;4.90;2.60;;;9.30;99.90;;;;;;5072270;28;20198;-58
2022/04/25 04:53:03;;;;;;;2.77;1.70;;;9.20;99.90;;;;;;5073860;28;20228;-51
2022/04/25 04:55:49;;;;;;;1.70;1.60;;;9.20;99.90;;;;;;5071029;28;20293;-60
2022/04/25 04:58:34;;;;;;;2.03;1.77;;;9.00;99.90;;;;;;5072734;28;20197;-51
2022/04/25 05:01:18;;;;;;;2.17;1.83;;;9.00;99.90;;;;;;5073242;28;20368;-58
2022/04/25 05:04:03;;;;;;;2.73;1.67;;;8.90;99.90;;;;;;5074904;28;20194;-55
2022/04/25 05:06:48;;;;;;;2.27;1.70;;;8.80;99.90;;;;;;5073419;28;20285;-52
2022/04/25 05:09:32;;;;;;;2.07;1.43;;;8.80;99.90;;;;;;5084254;28;20189;-57
2022/04/25 05:12:16;;;;;;;1.50;1.40;;;8.80;99.90;;;;;;5071031;28;20225;-49
2022/04/25 05:15:03;;;;;;;2.17;1.80;;;8.70;99.90;;;;;;5073242;28;20200;-48
2022/04/25 05:17:48;;;;;;;1.40;1.33;;;8.60;99.90;;;;;;5072133;28;20194;-58
2022/04/25 05:20:33;;;;;;;2.97;2.00;;;8.50;99.90;;;;;;5070941;28;20186;-53
2022/04/25 05:23:17;;;;;;;2.50;1.90;;;8.70;99.90;;;;;;5074537;28;20195;-46
2022/04/25 05:26:01;;;;;;;2.63;1.87;;;8.70;99.90;;;;;;5075343;28;20197;-64
2022/04/25 05:28:46;;;;;;;1.87;1.20;;;8.80;99.90;;;;;;5080114;28;20247;-49
2022/04/25 05:31:31;;;;;;;2.20;1.93;;;8.70;99.90;;;;;;5080036;28;20193;-48
2022/04/25 05:34:15;;;;;;;1.67;1.57;;;8.60;99.90;;;;;;5078203;28;20220;-45
2022/04/25 05:36:59;;;;;;;2.83;1.63;;;8.70;99.90;;;;;;5080635;28;20284;-52
2022/04/25 05:39:44;;;;;;;3.77;2.13;;;8.70;99.90;;;;;;5081000;28;20189;-56
2022/04/25 05:42:29;;;;;;;2.03;1.73;;;8.70;99.90;;;;;;5077957;28;20247;-50
2022/04/25 05:45:15;;;;;;;1.77;1.67;;;8.80;99.90;;;;;;5081179;28;20200;-51
2022/04/25 05:48:00;;;;;;;4.03;2.20;;;8.80;99.90;;;;;;5080181;28;20228;-49
2022/04/25 05:53:47;;;;;;;2.30;2.03;;;8.70;99.90;;;;;;5074789;28;20219;-52
2022/04/25 05:56:32;;;;;;;2.10;1.53;;;8.60;99.90;;;;;;5079969;28;20199;-55
2022/04/25 05:59:16;;;;;;;2.57;1.80;;;8.60;99.90;;;;;;5080961;28;20193;-51
2022/04/25 06:02:01;;;;;;;2.13;1.43;;;8.60;99.90;;;;;;5080087;28;20200;-57
2022/04/25 06:04:45;;;;;;;2.53;1.97;;;8.70;99.90;;;;;;5081787;28;20247;-49
2022/04/25 06:07:30;;;;;;;1.20;1.17;;;8.60;99.90;;;;;;5081400;28;20246;-55
2022/04/25 06:10:17;;;;;;;1.47;1.40;;;8.70;99.90;;;;;;5081337;28;20232;-53
2022/04/25 06:13:01;;;;;;;2.30;1.70;;;8.80;99.90;;;;;;5073111;28;20312;-47
2022/04/25 06:15:46;;;;;;;3.03;2.10;;;8.80;99.90;;;;;;5080402;28;20201;-47
2022/04/25 06:18:30;;;;;;;2.07;1.77;;;8.90;99.90;;;;;;5078959;28;20208;-58
2022/04/25 06:21:15;;;;;;;0.90;0.90;;;8.90;99.90;;;;;;5078801;28;20224;-56
2022/04/25 06:24:00;;;;;;;1.63;1.53;;;8.90;99.90;;;;;;5078055;28;20189;-50
2022/04/25 06:26:49;;;;;;;2.60;2.07;;;8.90;99.90;;;;;;5080410;28;20279;-57
2022/04/25 06:29:34;;;;;;;2.40;2.20;;;8.90;99.90;;;;;;5080214;28;20238;-63
2022/04/25 06:32:19;;;;;;;3.00;1.93;;;9.00;99.90;;;;;;5077256;28;20200;-52
2022/04/25 06:35:05;;;;;;;2.97;1.80;;;9.00;99.90;;;;;;5078038;28;20265;-58
2022/04/25 06:37:50;;;;;;;2.00;1.80;;;9.10;99.90;;;;;;5081190;28;20192;-60
2022/04/25 06:40:34;;;;;;;2.63;2.43;;;9.10;99.90;;;;;;5085642;28;20688;-50
2022/04/25 06:43:19;;;;;;;2.50;1.90;;;9.10;99.90;;;;;;5074169;28;20193;-53
2022/04/25 06:46:04;;;;;;;1.90;1.67;;;9.10;99.90;;;;;;5084462;28;20204;-55
2022/04/25 06:52:09;;;;;;;1.60;1.50;;;9.20;99.90;;;;;;5047228;28;20202;-50
2022/04/25 06:54:53;;;;;;;1.80;1.70;;;9.40;99.90;;;;;;5029422;28;20757;-58
2022/04/25 06:57:38;;;;;;;1.90;1.80;;;9.40;99.90;;;;;;5042899;28;20201;-61
2022/04/25 07:00:25;;;;;;;2.03;1.80;;;9.40;99.90;;;;;;5047757;28;20226;-60
2022/04/25 07:03:09;;;;;;;2.57;1.77;;;9.50;99.90;;;;;;5028360;28;20286;-59
2022/04/25 07:05:55;;;;;;;1.73;1.63;;;9.50;99.90;;;;;;5026219;28;20289;-63
2022/04/25 07:08:40;;;;;;;1.60;1.50;;;9.60;99.90;;;;;;5025375;28;20218;-61
2022/04/25 07:11:24;;;;;;;3.57;2.00;;;9.40;99.90;;;;;;5025802;28;20273;-45
2022/04/25 07:14:09;;;;;;;2.17;1.80;;;9.60;99.90;;;;;;5028898;28;20345;-52
2022/04/25 07:16:56;;;;;;;3.37;1.83;;;9.70;99.90;;;;;;5044413;28;20204;-45
2022/04/25 07:19:41;;;;;;;2.17;1.97;;;9.90;99.90;;;;;;5045531;28;20213;-62
2022/04/25 07:28:49;;;;;;;2.03;1.33;;;10.10;99.90;;;;;;5080124;28;20256;-63
2022/04/25 07:31:34;;;;;;;2.30;2.10;;;10.10;99.90;;;;;;5084858;28;20200;-55
2022/04/25 07:34:20;;;;;;;1.70;1.60;;;10.00;99.90;;;;;;5099119;28;20224;-63
2022/04/25 07:37:04;;;;;;;2.20;1.97;;;9.90;99.90;;;;;;5075440;28;20189;-61
2022/04/25 07:39:49;;;;;;;2.13;1.93;;;10.10;99.90;;;;;;5085498;28;20331;-57
2022/04/25 07:42:35;;;;;;;4.93;2.40;;;9.90;99.90;;;;;;5085039;28;20263;-59
2022/04/25 07:45:19;;;;;;;2.40;2.20;;;9.90;99.90;;;;;;5086358;28;20247;-44
2022/04/25 07:48:04;;;;;;;1.93;1.83;;;10.00;99.90;;;;;;5084343;28;20201;-52
2022/04/25 07:50:48;;;;;;;1.97;1.73;;;10.00;99.90;;;;;;5085876;28;20250;-57
2022/04/25 07:53:33;;;;;;;2.17;2.00;;;9.90;99.90;;;;;;5085177;28;20302;-49
2022/04/25 07:56:18;;;;;;;4.03;2.30;;;9.90;99.90;;;;;;5084600;28;20196;-61
2022/04/25 07:59:05;;;;;;;1.97;1.63;;;10.00;99.90;;;;;;5085083;28;20238;-57
2022/04/25 08:01:49;;;;;;;3.40;2.13;;;10.00;99.90;;;;;;5084988;28;20243;-44
2022/04/25 08:04:33;;;;;;;2.00;1.87;;;10.20;99.90;;;;;;5084132;28;20291;-52
2022/04/25 08:07:18;;;;;;;3.33;1.90;;;10.20;99.90;;;;;;5085676;28;20192;-59
2022/04/25 08:10:02;;;;;;;3.60;2.37;;;10.30;99.90;;;;;;5084918;28;20201;-58
2022/04/25 08:18:52;;;;;;;2.43;2.17;;;11.10;99.90;;;;;;5086989;28;20284;-57
2022/04/25 08:21:38;;;;;;;6.30;2.30;;;11.30;99.90;;;;;;5084672;28;20196;-54
2022/04/25 08:24:22;;;;;;;2.57;2.37;;;11.00;99.90;;;;;;5084971;28;20205;-62
2022/04/25 08:27:07;;;;;;;2.13;1.93;;;10.80;99.90;;;;;;5083734;28;20213;-44
2022/04/25 08:29:51;;;;;;;2.33;2.13;;;10.80;99.90;;;;;;5082285;28;20197;-47
2022/04/25 08:32:36;;;;;;;2.10;2.00;;;10.80;99.90;;;;;;5084799;28;20300;-52
2022/04/25 08:35:21;;;;;;;3.70;2.20;;;11.00;99.90;;;;;;5081614;28;20251;-59
2022/04/25 08:38:06;;;;;;;2.83;1.87;;;10.90;99.90;;;;;;5078574;28;20269;-62
2022/04/25 08:40:51;;;;;;;2.33;2.13;;;11.20;99.90;;;;;;5084679;28;20197;-61
2022/04/25 08:43:35;;;;;;;2.23;1.67;;;11.20;99.90;;;;;;5083452;28;20238;-61
2022/04/25 08:46:21;;;;;;;1.70;1.60;;;11.00;99.90;;;;;;5084345;28;20193;-58
2022/04/25 08:49:08;;;;;;;1.77;1.63;;;11.10;99.90;;;;;;5083366;28;20193;-63
2022/04/25 08:51:58;;;;;;;1.50;1.50;;;11.30;99.90;;;;;;5083531;28;20278;-52
2022/04/25 08:54:43;;;;;;;1.47;1.47;;;11.30;99.90;;;;;;5083560;28;20287;-57
2022/04/25 08:57:29;;;;;;;1.83;1.73;;;11.50;99.90;;;;;;5068662;28;20229;-52
2022/04/25 09:00:15;;;;;;;1.40;1.40;;;11.90;99.90;;;;;;5082793;28;20242;-44
2022/04/25 09:03:00;;;;;;;1.73;1.57;;;12.20;99.90;;;;;;5083954;28;20262;-61
2022/04/25 09:05:46;;;;;;;1.57;1.37;;;11.90;99.90;;;;;;5081850;28;20312;-57
2022/04/25 09:08:30;;;;;;;2.20;1.50;;;11.90;99.90;;;;;;5083476;28;20196;-53
2022/04/25 09:14:19;;;;;;;1.27;1.20;;;12.20;99.90;;;;;;5083409;28;20219;-57
2022/04/25 09:17:04;;;;;;;1.00;1.00;;;12.20;99.90;;;;;;5084132;28;20231;-58
2022/04/25 09:19:49;;;;;;;1.57;1.47;;;12.40;99.90;;;;;;5085027;28;20220;-65
2022/04/25 09:22:39;;;;;;;1.70;1.60;;;12.40;99.90;;;;;;5083086;28;20243;-61
2022/04/25 09:25:24;;;;;;;2.07;1.47;;;12.30;99.90;;;;;;5084536;28;20302;-63
2022/04/25 09:28:11;;;;;;;1.43;1.33;;;12.40;99.90;;;;;;5083244;28;20269;-62
2022/04/25 09:30:57;;;;;;;1.63;1.53;;;12.30;99.90;;;;;;5077570;28;20211;-58
2022/04/25 09:33:41;;;;;;;1.33;1.23;;;12.70;99.90;;;;;;5083377;28;20248;-58
2022/04/25 09:36:26;;;;;;;1.10;1.10;;;13.10;99.90;;;;;;5064415;28;20240;-50
2022/04/25 09:39:27;;;;;;;1.60;1.50;;;13.70;99.90;;;;;;5083520;28;20185;-63
2022/04/25 09:42:11;;;;;;;1.40;1.30;;;13.40;99.90;;;;;;5083419;28;20196;-52
2022/04/25 09:44:58;;;;;;;1.10;1.00;;;12.90;99.90;;;;;;5064338;28;20220;-57
2022/04/25 09:47:42;;;;;;;1.47;1.37;;;13.00;99.90;;;;;;5063798;28;20205;-61
2022/04/25 09:50:27;;;;;;;1.70;1.20;;;13.00;99.90;;;;;;5083091;28;20197;-55
2022/04/25 09:53:12;;;;;;;0.87;0.87;;;13.30;99.90;;;;;;5082568;28;20225;-60
2022/04/25 09:56:09;;;;;;;0.80;0.80;;;13.30;99.90;;;;;;5083815;28;20197;-52
2022/04/25 09:59:05;;;;;;;1.00;0.90;;;13.10;99.90;;;;;;5063877;28;20213;-57
2022/04/25 10:02:09;;;;;;;1.53;1.43;;;13.00;99.90;;;;;;5070379;28;20196;-58
2022/04/25 10:04:54;;;;;;;1.40;1.30;;;12.50;99.90;;;;;;5075196;28;20264;-54
2022/04/25 10:07:40;;;;;;;1.37;1.27;;;12.10;99.90;;;;;;5083980;28;20204;-53
2022/04/25 10:10:25;;;;;;;1.13;1.10;;;12.00;99.90;;;;;;5081421;28;20197;-51
2022/04/25 10:13:10;;;;;;;1.47;1.37;;;12.30;99.90;;;;;;5084982;28;20228;-63
2022/04/25 10:15:56;;;;;;;1.80;1.70;;;12.30;99.90;;;;;;5087764;28;20236;-59
2022/04/25 10:18:41;;;;;;;1.37;1.27;;;11.90;99.90;;;;;;5086263;28;20627;-60
2022/04/25 10:21:30;;;;;;;1.13;1.10;;;12.10;99.90;;;;;;5087951;28;20419;-59
2022/04/25 10:24:18;;;;;;;3.50;1.40;;;12.10;99.90;;;;;;5087110;28;20196;-61
2022/04/25 10:27:09;;;;;;;1.20;1.10;;;12.20;99.90;;;;;;5086800;28;20334;-59
2022/04/25 10:29:56;;;;;;;1.07;1.07;;;12.30;99.90;;;;;;5087486;28;20189;-57
2022/04/25 10:32:41;;;;;;;0.70;0.70;;;12.40;99.90;;;;;;5086261;28;20243;-49
2022/04/25 10:35:34;;;;;;;0.77;0.77;;;12.50;99.90;;;;;;5086591;28;20188;-53
2022/04/25 10:44:36;;;;;;;0.77;0.77;;;14.60;99.90;;;;;;5086065;28;20188;-61
2022/04/25 10:47:25;;;;;;;0.90;0.90;;;15.70;99.90;;;;;;5085825;28;20293;-59
2022/04/25 10:50:09;;;;;;;2.60;1.53;;;15.70;99.90;;;;;;5084479;28;20264;-52
2022/04/25 10:52:54;;;;;;;1.40;1.30;;;15.60;99.90;;;;;;5083042;28;20225;-48
2022/04/25 10:55:43;;;;;;;1.10;1.10;;;15.40;99.90;;;;;;5085244;28;20245;-52
2022/04/25 10:58:27;;;;;;;1.37;1.27;;;14.10;99.90;;;;;;5083267;28;20193;-53
2022/04/25 11:01:30;;;;;;;1.00;1.00;;;13.70;99.90;;;;;;5076023;28;20193;-60
2022/04/25 11:04:15;;;;;;;1.10;1.10;;;13.50;99.90;;;;;;5066595;28;20213;-57
2022/04/25 11:07:20;;;;;;;1.40;1.33;;;13.00;99.90;;;;;;5079692;28;20329;-58
2022/04/25 11:10:09;;;;;;;1.00;1.00;;;12.80;99.90;;;;;;5065282;28;20193;-58
2022/04/25 11:12:57;;;;;;;1.07;1.03;;;12.60;99.90;;;;;;5090105;28;20282;-56
2022/04/25 11:15:44;;;;;;;1.00;1.00;;;12.40;99.90;;;;;;5084686;28;20198;-45
2022/04/25 11:18:33;;;;;;;1.10;0.93;;;12.30;99.90;;;;;;5085605;28;20193;-45
2022/04/25 11:21:30;;;;;;;1.00;1.00;;;12.10;99.90;;;;;;5086367;28;20220;-55
2022/04/25 11:24:28;;;;;;;1.07;0.97;;;12.20;99.90;;;;;;5083035;28;20197;-58
2022/04/25 11:27:14;;;;;;;1.10;1.10;;;12.10;99.90;;;;;;5085704;28;20232;-47
2022/04/25 11:30:16;;;;;;;1.13;1.07;;;12.10;99.90;;;;;;5080134;28;20263;-56
2022/04/25 11:33:12;;;;;;;0.90;0.90;;;12.10;99.90;;;;;;5083611;28;20228;-56
2022/04/25 11:36:00;;;;;;;1.10;1.10;;;12.00;99.90;;;;;;5083713;28;20254;-63
2022/04/25 11:41:49;;;;;;;0.73;0.73;;;12.10;99.90;;;;;;5084725;28;20243;-53
2022/04/25 11:44:38;;;;;;;1.37;1.37;;;12.30;99.90;;;;;;5085716;28;20215;-58
2022/04/25 11:47:23;;;;;;;1.00;0.90;;;12.50;99.90;;;;;;5086272;28;20258;-59
2022/04/25 11:50:11;;;;;;;0.90;0.90;;;12.40;99.90;;;;;;5085234;28;20201;-62
2022/04/25 11:52:56;;;;;;;0.70;0.70;;;12.40;99.90;;;;;;5084714;28;20231;-47
2022/04/25 11:55:40;;;;;;;1.53;0.80;;;12.80;99.90;;;;;;5086304;28;20228;-41
2022/04/25 11:58:29;;;;;;;1.40;1.00;;;13.00;99.90;;;;;;5084352;28;20274;-54
2022/04/25 12:01:13;;;;;;;0.90;0.90;;;13.30;99.90;;;;;;5085847;28;20197;-42
2022/04/25 12:04:27;;;;;;;1.00;0.90;;;13.40;99.90;;;;;;5085810;28;20197;-64
2022/04/25 12:07:12;;;;;;;0.80;0.80;;;13.60;99.90;;;;;;5081119;28;20236;-63
2022/04/25 12:16:09;;;;;;;0.70;0.70;;;14.40;99.90;;;;;;5081959;28;20220;-45
2022/04/25 12:18:53;;;;;;;0.80;0.80;;;15.00;99.90;;;;;;5084210;28;20270;-61
2022/04/25 12:21:40;;;;;;;0.77;0.77;;;15.30;99.90;;;;;;5083603;28;20241;-59
2022/04/25 12:24:25;;;;;;;0.73;0.73;;;15.90;99.90;;;;;;5084233;28;20200;-57
2022/04/25 12:27:11;;;;;;;0.60;0.60;;;17.40;98.60;;;;;;5072446;28;20312;-57
2022/04/25 12:30:06;;;;;;;1.00;1.00;;;17.80;98.40;;;;;;5084792;28;20194;-50
2022/04/25 12:33:08;;;;;;;0.97;0.97;;;16.50;97.10;;;;;;5083497;28;20286;-47
2022/04/25 12:36:27;;;;;;;0.90;0.90;;;16.10;98.30;;;;;;5079077;28;20193;-54
2022/04/25 12:39:14;;;;;;;0.83;0.83;;;15.80;98.80;;;;;;5080442;28;20235;-52
2022/04/25 12:41:59;;;;;;;1.10;0.98;;;17.20;98.50;;;;;;5084403;28;20201;-46
2022/04/25 12:44:57;;;;;;;1.30;1.20;;;19.00;94.70;;;;;;5084543;28;20200;-46
2022/04/25 12:47:57;;;;;;;0.75;0.75;;;18.60;93.90;;;;;;5084410;28;20216;-47
2022/04/25 12:50:45;;;;;;;2.67;0.93;;;17.90;95.70;;;;;;5083397;28;20181;-46
2022/04/25 12:53:40;;;;;;;0.73;0.73;;;18.80;94.90;;;;;;5080409;28;20270;-51
2022/04/25 12:56:33;;;;;;;0.77;0.77;;;19.50;92.90;;;;;;5082876;28;20213;-53
2022/04/25 12:59:28;;;;;;;0.70;0.70;;;19.20;92.60;;;;;;5081270;28;20254;-58
2022/04/25 13:02:16;;;;;;;1.00;1.00;;;19.10;91.90;;;;;;5082188;28;20220;-54
2022/04/25 13:05:04;;;;;;;0.60;0.60;;;18.20;93.10;;;;;;5084931;28;20320;-55
2022/04/25 13:07:48;;;;;;;0.80;0.80;;;17.90;93.30;;;;;;5084011;28;20228;-49
2022/04/25 13:10:33;;;;;;;0.80;0.80;;;18.00;93.60;;;;;;5084382;28;20204;-61
2022/04/25 13:13:17;;;;;;;0.93;0.93;;;18.40;93.30;;;;;;5084129;28;20307;-44
2022/04/25 13:16:02;;;;;;;0.80;0.80;;;18.00;93.90;;;;;;5083587;28;20239;-47
2022/04/25 13:18:48;;;;;;;0.90;0.90;;;19.30;93.50;;;;;;5083699;28;20275;-44
2022/04/25 13:21:37;;;;;;;1.05;1.05;;;20.50;91.40;;;;;;5083564;28;20217;-62
2022/04/25 13:24:21;;;;;;;0.90;0.90;;;20.60;90.70;;;;;;5082804;28;20204;-42
2022/04/25 13:27:06;;;;;;;1.08;1.08;;;19.20;91.50;;;;;;5083863;28;20248;-50
2022/04/25 13:29:51;;;;;;;0.60;0.60;;;18.70;92.40;;;;;;5083965;28;20247;-42
2022/04/25 13:32:36;;;;;;;0.98;0.98;;;18.80;93.20;;;;;;5082650;28;20204;-46
2022/04/25 13:35:23;;;;;;;1.13;1.13;;;20.80;91.40;;;;;;5083998;28;20220;-41
2022/04/25 13:38:07;;;;;;;0.90;0.90;;;19.50;91.70;;;;;;5083297;28;20232;-51
2022/04/25 13:40:51;;;;;;;1.08;1.08;;;19.10;92.00;;;;;;5083204;28;20258;-46
2022/04/25 13:43:35;;;;;;;1.13;1.10;;;18.50;92.60;;;;;;5083850;28;20193;-46
2022/04/25 13:46:20;;;;;;;1.07;1.07;;;18.10;92.70;;;;;;5082527;28;20201;-54
2022/04/25 13:49:04;;;;;;;0.70;0.70;;;18.10;92.50;;;;;;5081842;28;20216;-60
2022/04/25 13:51:48;;;;;;;1.05;1.05;;;18.90;92.30;;;;;;5081731;28;20250;-64
2022/04/25 13:54:33;;;;;;;0.90;0.90;;;18.70;92.00;;;;;;5080710;28;20290;-57
2022/04/25 13:57:18;;;;;;;3.23;1.00;;;17.90;92.70;;;;;;5080364;28;20201;-62
2022/04/25 14:00:03;;;;;;;0.83;0.83;;;16.80;93.60;;;;;;5080634;28;20185;-49
2022/04/25 14:03:06;;;;;;;0.93;0.87;;;17.20;93.80;;;;;;5080153;28;20215;-58
2022/04/25 14:05:50;;;;;;;1.30;0.77;;;17.50;93.40;;;;;;5081321;28;20254;-51
2022/04/25 14:08:35;;;;;;;0.80;0.80;;;18.60;92.80;;;;;;5081562;28;20185;-64
2022/04/25 14:11:22;;;;;;;0.60;0.60;;;20.80;90.70;;;;;;5079535;28;20196;-59
2022/04/25 14:14:07;;;;;;;0.75;0.75;;;20.80;88.00;;;;;;5082830;28;20217;-50
2022/04/25 14:16:53;;;;;;;0.73;0.73;;;19.80;90.00;;;;;;5080837;28;20180;-62
2022/04/25 14:19:38;;;;;;;0.65;0.65;;;19.90;90.00;;;;;;5079237;28;20232;-44
2022/04/25 14:22:22;;;;;;;0.80;0.80;;;19.50;90.10;;;;;;5080403;28;20278;-61
2022/04/25 14:25:08;;;;;;;0.70;0.70;;;18.60;90.70;;;;;;5080782;28;20184;-55
2022/04/25 14:27:53;;;;;;;2.13;1.93;;;17.50;92.10;;;;;;5082125;28;20327;-58
2022/04/25 14:30:38;;;;;;;1.90;1.73;;;17.80;92.30;;;;;;5083981;28;20193;-44
2022/04/25 14:33:22;;;;;;;0.70;0.70;;;20.50;90.00;;;;;;5082421;28;20224;-64
2022/04/25 14:36:06;;;;;;;0.80;0.80;;;22.90;84.30;;;;;;5083365;28;20225;-45
2022/04/25 14:38:51;;;;;;;0.60;0.60;;;23.60;80.80;;;;;;5083180;28;20319;-57
2022/04/25 14:41:35;;;;;;;0.73;0.73;;;25.40;78.50;;;;;;5081477;28;20193;-57
2022/04/25 14:44:20;;;;;;;0.93;0.93;;;26.20;73.10;;;;;;5081956;28;20193;-52
2022/04/25 14:47:06;;;;;;;0.70;0.70;;;26.40;73.20;;;;;;5082531;28;20247;-45
2022/04/25 14:55:56;;;;;;;0.80;0.80;;;25.90;68.20;;;;;;5079218;28;20196;-52
2022/04/25 14:58:41;;;;;;;0.88;0.88;;;26.60;66.50;;;;;;5083674;28;20236;-57
2022/04/25 15:01:27;;;;;;;0.60;0.60;;;25.80;66.70;;;;;;5085993;28;20259;-49
2022/04/25 15:04:12;;;;;;;4.05;3.70;;;26.10;65.40;;;;;;5082308;28;20656;-60
2022/04/25 15:06:56;;;;;;;1.10;1.10;;;26.70;65.10;;;;;;5084284;28;20197;-57
2022/04/25 15:09:42;;;;;;;0.60;0.60;;;27.30;64.30;;;;;;5084814;28;20193;-57
2022/04/25 15:12:27;;;;;;;0.85;0.70;;;27.80;62.20;;;;;;5082372;28;20193;-57
2022/04/25 15:15:12;;;;;;;0.50;0.50;;;28.40;59.90;;;;;;5081260;28;20192;-61
2022/04/25 15:17:56;;;;;;;0.60;0.60;;;27.30;61.20;;;;;;5084299;28;20197;-48
2022/04/25 15:20:40;;;;;;;0.70;0.70;;;28.00;61.30;;;;;;5084341;28;20212;-57
2022/04/25 15:23:25;;;;;;;0.70;0.70;;;27.60;60.50;;;;;;5081261;28;20232;-49